createdAt,value
2023-03-26T00:02:17.802Z,9.35
2023-03-26T00:04:46.629Z,9.32
2023-03-26T00:07:16.268Z,9.31
2023-03-26T00:09:44.790Z,9.36
2023-03-26T00:12:18.873Z,9.46
2023-03-26T00:14:47.222Z,9.51
2023-03-26T00:17:15.673Z,9.51
2023-03-26T00:19:46.882Z,9.49
2023-03-26T00:22:17.207Z,9.46
2023-03-26T00:24:46.200Z,9.39
2023-03-26T00:27:23.923Z,9.32
2023-03-26T00:29:52.403Z,9.33
2023-03-26T00:32:21.814Z,9.40
2023-03-26T00:35:01.751Z,9.42
2023-03-26T00:37:30.681Z,9.39
2023-03-26T00:40:07.332Z,9.34
2023-03-26T00:42:38.063Z,9.28
2023-03-26T00:45:09.983Z,9.22
2023-03-26T00:47:40.281Z,9.23
2023-03-26T00:50:15.469Z,9.25
2023-03-26T00:52:45.144Z,9.25
2023-03-26T00:55:16.343Z,9.20
2023-03-26T00:57:48.770Z,9.12
2023-03-26T01:00:18.163Z,9.07
2023-03-26T01:02:47.348Z,9.05
2023-03-26T01:05:42.835Z,9.09
2023-03-26T01:08:18.865Z,9.18
2023-03-26T01:10:51.626Z,9.20
2023-03-26T01:13:21.726Z,9.18
2023-03-26T01:15:51.311Z,9.15
2023-03-26T01:18:21.524Z,9.11
2023-03-26T01:20:49.917Z,9.13
2023-03-26T01:23:23.906Z,9.18
2023-03-26T01:26:04.110Z,9.19
2023-03-26T01:28:39.684Z,9.17
2023-03-26T01:31:20.248Z,9.12
2023-03-26T01:33:52.385Z,9.09
2023-03-26T01:36:28.301Z,9.07
2023-03-26T01:39:00.663Z,9.10
2023-03-26T01:41:31.821Z,9.15
2023-03-26T01:44:17.224Z,9.17
2023-03-26T01:46:46.200Z,9.17
2023-03-26T01:49:15.400Z,9.16
2023-03-26T01:51:43.642Z,9.15
2023-03-26T01:54:17.999Z,9.12
2023-03-26T01:57:18.304Z,9.15
2023-03-26T02:00:14.359Z,9.18
2023-03-26T02:02:58.000Z,9.16
2023-03-26T02:05:29.711Z,9.17
2023-03-26T02:08:38.178Z,9.16
2023-03-26T02:11:11.830Z,9.11
2023-03-26T02:13:45.639Z,9.08
2023-03-26T02:16:17.029Z,9.12
2023-03-26T02:18:51.521Z,9.20
2023-03-26T02:21:21.508Z,9.23
2023-03-26T02:23:50.929Z,9.23
2023-03-26T02:26:20.310Z,9.23
2023-03-26T02:28:59.181Z,9.23
2023-03-26T02:31:35.012Z,9.22
2023-03-26T02:34:04.278Z,9.27
2023-03-26T02:36:43.095Z,9.36
2023-03-26T02:39:12.422Z,9.40
2023-03-26T02:41:41.095Z,9.41
2023-03-26T02:44:12.913Z,9.41
2023-03-26T02:46:59.140Z,9.39
2023-03-26T02:49:43.401Z,9.36
2023-03-26T02:52:18.781Z,9.40
2023-03-26T02:54:50.695Z,9.47
2023-03-26T02:57:21.848Z,9.50
2023-03-26T03:00:14.393Z,9.50
2023-03-26T03:03:04.576Z,9.47
2023-03-26T03:05:33.379Z,9.42
2023-03-26T03:08:22.091Z,9.39
2023-03-26T03:11:19.249Z,9.43
2023-03-26T03:13:48.742Z,9.47
2023-03-26T03:16:20.190Z,9.46
2023-03-26T03:18:54.779Z,9.42
2023-03-26T03:21:32.598Z,9.37
2023-03-26T03:24:03.032Z,9.33
2023-03-26T03:26:36.639Z,9.31
2023-03-26T03:29:18.845Z,9.35
2023-03-26T03:31:47.718Z,9.40
2023-03-26T03:34:39.383Z,9.39
2023-03-26T03:37:08.091Z,9.34
2023-03-26T03:39:42.825Z,9.28
2023-03-26T03:42:12.333Z,9.22
2023-03-26T03:44:42.641Z,9.17
2023-03-26T03:47:20.497Z,9.19
2023-03-26T03:49:48.894Z,9.26
2023-03-26T03:52:18.234Z,9.26
2023-03-26T03:54:46.716Z,9.24
2023-03-26T03:57:46.266Z,9.19
2023-03-26T04:00:20.252Z,9.13
2023-03-26T04:02:56.432Z,9.07
2023-03-26T04:05:29.285Z,9.08
2023-03-26T04:07:57.604Z,9.13
2023-03-26T04:10:28.858Z,9.12
2023-03-26T04:13:25.841Z,9.09
2023-03-26T04:16:13.149Z,9.02
2023-03-26T04:18:41.982Z,8.95
2023-03-26T04:21:16.151Z,8.91
2023-03-26T04:23:45.996Z,8.89
2023-03-26T04:26:33.895Z,8.92
2023-03-26T04:29:19.184Z,8.88
2023-03-26T04:34:24.514Z,8.77
2023-03-26T04:37:01.877Z,8.65
2023-03-26T04:39:34.373Z,8.60
2023-03-26T04:42:25.656Z,8.60
2023-03-26T04:45:11.296Z,8.63
2023-03-26T04:47:40.569Z,8.60
2023-03-26T04:57:52.377Z,8.40
2023-03-26T05:00:41.657Z,8.40
2023-03-26T05:03:13.418Z,8.44
2023-03-26T05:05:41.640Z,8.43
2023-03-26T05:08:11.588Z,8.39
2023-03-26T05:10:42.696Z,8.35
2023-03-26T05:13:16.524Z,8.32
2023-03-26T05:15:55.893Z,8.31
2023-03-26T05:18:40.507Z,8.39
2023-03-26T05:21:11.360Z,8.49
2023-03-26T05:23:40.408Z,8.56
2023-03-26T05:26:17.256Z,8.58
2023-03-26T05:28:45.846Z,8.61
2023-03-26T05:31:23.835Z,8.63
2023-03-26T05:33:55.989Z,8.65
2023-03-26T05:36:28.668Z,8.76
2023-03-26T05:39:30.076Z,8.90
2023-03-26T05:42:20.407Z,8.96
2023-03-26T05:45:27.034Z,9.00
2023-03-26T05:47:56.869Z,9.00
2023-03-26T05:50:26.306Z,9.06
2023-03-26T05:53:04.736Z,9.13
2023-03-26T05:56:02.381Z,9.32
2023-03-26T05:58:50.925Z,9.53
2023-03-26T06:01:39.849Z,9.70
2023-03-26T06:04:17.712Z,9.78
2023-03-26T06:07:16.929Z,9.79
2023-03-26T06:09:51.066Z,9.77
2023-03-26T06:12:19.430Z,9.78
2023-03-26T06:14:56.889Z,9.81
2023-03-26T06:17:36.303Z,9.93
2023-03-26T06:20:16.027Z,10.07
2023-03-26T06:22:47.283Z,10.13
2023-03-26T06:25:42.302Z,10.14
2023-03-26T06:28:17.275Z,10.18
2023-03-26T06:31:06.063Z,10.32
2023-03-26T06:34:22.250Z,10.49
2023-03-26T06:36:52.842Z,10.64
2023-03-26T06:39:47.971Z,10.81
2023-03-26T06:42:19.394Z,11.01
2023-03-26T06:45:25.624Z,11.11
2023-03-26T06:48:28.512Z,11.12
2023-03-26T06:51:17.043Z,11.11
2023-03-26T06:54:07.208Z,11.10
2023-03-26T06:56:54.056Z,11.05
2023-03-26T06:59:38.090Z,10.95
2023-03-26T07:02:24.589Z,10.84
2023-03-26T07:05:11.677Z,10.67
2023-03-26T07:07:59.654Z,10.50
2023-03-26T07:10:46.993Z,10.40
2023-03-26T07:13:47.789Z,10.32
2023-03-26T07:16:35.027Z,10.26
2023-03-26T07:19:09.457Z,10.23
2023-03-26T07:21:44.305Z,10.26
2023-03-26T07:24:32.718Z,10.31
2023-03-26T07:27:21.523Z,10.27
2023-03-26T07:29:58.746Z,10.25
2023-03-26T07:33:35.916Z,10.25
2023-03-26T07:37:05.876Z,10.28
2023-03-26T07:40:19.012Z,10.28
2023-03-26T07:43:22.463Z,10.30
2023-03-26T07:46:16.995Z,10.33
2023-03-26T07:48:55.742Z,10.36
2023-03-26T07:51:53.237Z,10.41
2023-03-26T07:54:44.464Z,10.48
2023-03-26T07:57:57.413Z,10.55
2023-03-26T08:00:54.124Z,10.63
2023-03-26T08:03:22.593Z,10.74
2023-03-26T08:06:12.844Z,10.87
2023-03-26T08:09:03.661Z,11.04
2023-03-26T08:12:06.788Z,11.28
2023-03-26T08:15:08.182Z,11.55
2023-03-26T08:17:57.271Z,11.84
2023-03-26T08:20:41.630Z,12.05
2023-03-26T08:23:50.326Z,12.14
2023-03-26T08:26:23.821Z,12.09
2023-03-26T08:29:19.792Z,11.94
2023-03-26T08:31:48.728Z,11.62
2023-03-26T08:34:16.808Z,11.35
2023-03-26T08:36:46.143Z,11.17
2023-03-26T08:39:14.418Z,11.05
2023-03-26T08:42:09.441Z,11.04
2023-03-26T08:45:16.327Z,11.08
2023-03-26T08:48:03.998Z,11.10
2023-03-26T08:50:45.098Z,11.11
2023-03-26T08:53:25.570Z,11.13
2023-03-26T08:56:31.052Z,11.21
2023-03-26T08:59:08.281Z,11.31
2023-03-26T09:01:54.460Z,11.43
2023-03-26T09:05:00.054Z,11.63
2023-03-26T09:07:36.670Z,11.83
2023-03-26T09:10:09.214Z,11.95
2023-03-26T09:13:02.432Z,12.06
2023-03-26T09:15:57.551Z,12.14
2023-03-26T09:18:50.956Z,12.18
2023-03-26T09:21:25.646Z,12.14
2023-03-26T09:24:27.925Z,12.11
2023-03-26T09:27:00.447Z,12.08
2023-03-26T09:29:40.688Z,12.07
2023-03-26T09:32:23.096Z,12.13
2023-03-26T09:35:14.338Z,12.28
2023-03-26T09:37:59.069Z,12.49
2023-03-26T09:40:35.391Z,12.69
2023-03-26T09:43:29.011Z,12.86
2023-03-26T09:46:13.473Z,13.04
2023-03-26T09:48:54.253Z,13.18
2023-03-26T09:51:48.884Z,13.31
2023-03-26T09:54:45.056Z,13.46
2023-03-26T09:57:24.209Z,13.59
2023-03-26T09:59:57.684Z,13.72
2023-03-26T10:02:49.245Z,13.85
2023-03-26T10:05:20.718Z,13.99
2023-03-26T10:08:03.060Z,14.09
2023-03-26T10:11:00.388Z,14.17
2023-03-26T10:13:59.002Z,14.17
2023-03-26T10:16:34.297Z,14.05
2023-03-26T10:19:23.548Z,13.90
2023-03-26T10:22:06.391Z,13.82
2023-03-26T10:24:48.692Z,13.78
2023-03-26T10:27:59.010Z,13.79
2023-03-26T10:30:33.364Z,13.90
2023-03-26T10:33:22.483Z,14.01
2023-03-26T10:36:22.251Z,14.21
2023-03-26T10:38:54.404Z,14.43
2023-03-26T10:41:41.387Z,14.66
2023-03-26T10:44:12.645Z,14.87
2023-03-26T10:46:56.228Z,14.98
2023-03-26T10:49:36.046Z,15.07
2023-03-26T10:52:06.965Z,15.09
2023-03-26T10:54:40.611Z,15.14
2023-03-26T10:57:23.130Z,15.19
2023-03-26T10:59:54.063Z,15.17
2023-03-26T11:02:31.087Z,14.99
2023-03-26T11:05:23.151Z,14.66
2023-03-26T11:08:01.963Z,14.38
2023-03-26T11:10:56.815Z,14.11
2023-03-26T11:13:35.007Z,13.69
2023-03-26T11:16:11.227Z,13.45
2023-03-26T11:18:47.884Z,13.30
2023-03-26T11:21:32.704Z,13.20
2023-03-26T11:24:21.485Z,13.13
2023-03-26T11:26:57.787Z,13.05
2023-03-26T11:29:46.955Z,13.01
2023-03-26T11:32:22.360Z,13.01
2023-03-26T11:35:02.473Z,13.02
2023-03-26T11:37:42.732Z,13.10
2023-03-26T11:40:18.137Z,13.20
2023-03-26T11:42:49.977Z,13.27
2023-03-26T11:45:24.151Z,13.30
2023-03-26T11:52:57.534Z,13.32
2023-03-26T11:55:46.861Z,13.41
2023-03-26T11:58:52.347Z,13.54
2023-03-26T12:01:31.334Z,13.63
2023-03-26T12:04:11.266Z,13.58
2023-03-26T12:06:40.246Z,13.54
2023-03-26T12:09:17.549Z,13.50
2023-03-26T12:11:49.835Z,13.45
2023-03-26T12:14:25.471Z,13.42
2023-03-26T12:17:06.764Z,13.40
2023-03-26T12:19:46.935Z,13.41
2023-03-26T12:22:34.003Z,13.41
2023-03-26T12:25:24.758Z,13.39
2023-03-26T12:28:03.145Z,13.35
2023-03-26T12:30:35.336Z,13.33
2023-03-26T12:33:22.046Z,13.34
2023-03-26T12:35:50.858Z,13.39
2023-03-26T12:38:30.319Z,13.41
2023-03-26T12:44:42.801Z,13.39
2023-03-26T12:44:53.965Z,13.31
2023-03-26T12:48:00.036Z,13.26
2023-03-26T12:50:18.815Z,13.33
2023-03-26T13:00:01.277Z,13.22
2023-03-26T13:02:44.230Z,13.21
2023-03-26T13:05:24.071Z,13.26
2023-03-26T13:08:03.799Z,13.35
2023-03-26T13:11:07.045Z,13.48
2023-03-26T13:14:04.303Z,13.63
2023-03-26T13:16:42.485Z,13.74
2023-03-26T13:19:37.788Z,13.78
2023-03-26T13:22:24.739Z,13.80
2023-03-26T13:25:09.620Z,13.81
2023-03-26T13:28:03.185Z,13.79
2023-03-26T13:30:34.957Z,13.75
2023-03-26T13:33:19.837Z,13.72
2023-03-26T13:36:22.348Z,13.69
2023-03-26T13:39:03.763Z,13.65
2023-03-26T13:41:56.550Z,13.64
2023-03-26T13:44:38.760Z,13.61
2023-03-26T13:47:40.564Z,13.59
2023-03-26T13:50:29.345Z,13.54
2023-03-26T13:53:07.014Z,13.47
2023-03-26T13:55:46.047Z,13.40
2023-03-26T13:58:34.248Z,13.35
2023-03-26T14:01:08.251Z,13.31
2023-03-26T14:03:55.718Z,13.28
2023-03-26T14:06:57.683Z,13.26
2023-03-26T14:09:38.347Z,13.24
2023-03-26T14:12:21.577Z,13.23
2023-03-26T14:14:53.184Z,13.22
2023-03-26T14:17:27.435Z,13.20
2023-03-26T14:20:24.224Z,13.18
2023-03-26T14:23:07.160Z,13.15
2023-03-26T14:25:49.699Z,13.14
2023-03-26T14:28:43.462Z,13.11
2023-03-26T14:31:41.124Z,13.06
2023-03-26T14:34:34.844Z,13.04
2023-03-26T14:37:27.764Z,13.02
2023-03-26T14:47:47.038Z,12.91
2023-03-26T14:50:42.601Z,12.87
2023-03-26T14:53:19.498Z,12.85
2023-03-26T14:55:56.738Z,12.83
2023-03-26T14:58:28.200Z,12.83
2023-03-26T15:01:28.340Z,12.82
2023-03-26T15:04:06.477Z,12.81
2023-03-26T15:07:01.276Z,12.80
2023-03-26T15:10:08.570Z,12.78
2023-03-26T15:13:21.958Z,12.75
2023-03-26T15:16:17.925Z,12.71
2023-03-26T15:19:05.953Z,12.68
2023-03-26T15:21:52.831Z,12.65
2023-03-26T15:24:27.470Z,12.62
2023-03-26T15:27:04.633Z,12.60
2023-03-26T15:30:11.702Z,12.57
2023-03-26T15:32:52.796Z,12.54
2023-03-26T15:35:39.311Z,12.52
2023-03-26T15:38:32.878Z,12.49
2023-03-26T15:41:19.627Z,12.46
2023-03-26T15:46:37.617Z,12.40
2023-03-26T15:49:17.546Z,12.37
2023-03-26T15:52:14.241Z,12.34
2023-03-26T15:54:49.131Z,12.29
2023-03-26T15:57:22.461Z,12.26
2023-03-26T16:00:17.314Z,12.24
2023-03-26T16:03:10.307Z,12.22
2023-03-26T16:05:56.541Z,12.18
2023-03-26T16:08:24.656Z,12.15
2023-03-26T16:11:00.196Z,12.13
2023-03-26T16:13:50.798Z,12.10
2023-03-26T16:16:24.189Z,12.07
2023-03-26T16:19:32.718Z,12.05
2023-03-26T16:22:01.569Z,11.98
2023-03-26T16:24:35.084Z,11.92
2023-03-26T16:27:15.898Z,11.87
2023-03-26T16:29:59.992Z,11.81
2023-03-26T16:32:36.078Z,11.76
2023-03-26T16:35:23.303Z,11.70
2023-03-26T16:38:13.977Z,11.65
2023-03-26T16:41:03.748Z,11.60
2023-03-26T16:43:41.058Z,11.53
2023-03-26T16:46:18.573Z,11.46
2023-03-26T16:52:03.029Z,11.35
2023-03-26T16:54:43.551Z,11.26
2023-03-26T16:57:27.793Z,11.22
2023-03-26T17:00:08.239Z,11.17
2023-03-26T17:02:57.008Z,11.12
2023-03-26T17:05:48.554Z,11.05
2023-03-26T17:08:35.568Z,10.99
2023-03-26T17:11:22.249Z,10.92
2023-03-26T17:13:54.547Z,10.88
2023-03-26T17:16:28.188Z,10.83
2023-03-26T17:19:16.448Z,10.78
2023-03-26T17:22:14.403Z,10.71
2023-03-26T17:24:59.858Z,10.63
2023-03-26T17:28:42.975Z,10.56
2023-03-26T17:31:35.631Z,10.48
2023-03-26T17:34:34.062Z,10.41
2023-03-26T17:37:12.702Z,10.36
2023-03-26T17:39:43.989Z,10.30
2023-03-26T17:42:17.019Z,10.25
2023-03-26T17:44:59.209Z,10.21
2023-03-26T17:47:34.913Z,10.15
2023-03-26T17:50:15.994Z,10.11
2023-03-26T17:52:50.091Z,10.05
2023-03-26T17:55:21.310Z,9.99
2023-03-26T17:57:54.531Z,9.93
2023-03-26T18:00:26.004Z,9.87
2023-03-26T18:02:57.464Z,9.82
2023-03-26T18:05:27.762Z,9.77
2023-03-26T18:15:46.755Z,9.63
2023-03-26T18:18:23.941Z,9.57
2023-03-26T18:20:58.023Z,9.53
2023-03-26T18:23:36.857Z,9.50
2023-03-26T18:26:14.259Z,9.45
2023-03-26T18:28:51.485Z,9.40
2023-03-26T18:31:26.372Z,9.36
2023-03-26T18:33:59.326Z,9.33
2023-03-26T18:36:30.843Z,9.28
2023-03-26T18:38:59.234Z,9.22
2023-03-26T18:41:32.333Z,9.17
2023-03-26T18:44:08.041Z,9.12
2023-03-26T18:46:45.871Z,9.09
2023-03-26T18:49:17.339Z,9.04
2023-03-26T18:51:56.766Z,8.99
2023-03-26T18:54:26.773Z,8.93
2023-03-26T18:56:55.184Z,8.89
2023-03-26T18:59:32.558Z,8.85
2023-03-26T19:02:04.632Z,8.81
2023-03-26T19:04:34.071Z,8.77
2023-03-26T19:07:04.585Z,8.73
2023-03-26T19:09:32.831Z,8.69
2023-03-26T19:12:07.068Z,8.66
2023-03-26T19:14:51.387Z,8.62
2023-03-26T19:17:30.924Z,8.56
2023-03-26T19:20:01.336Z,8.53
2023-03-26T19:30:29.725Z,8.44
2023-03-26T19:33:18.034Z,8.37
2023-03-26T19:35:51.996Z,8.31
2023-03-26T19:38:23.645Z,8.27
2023-03-26T19:40:54.611Z,8.24
2023-03-26T19:43:28.649Z,8.27
2023-03-26T19:46:04.435Z,8.33
2023-03-26T19:48:46.930Z,8.34
2023-03-26T19:51:25.835Z,8.32
2023-03-26T19:53:56.640Z,8.26
2023-03-26T19:56:24.833Z,8.21
2023-03-26T19:58:55.540Z,8.17
2023-03-26T20:01:28.460Z,8.11
2023-03-26T20:04:00.730Z,8.05
2023-03-26T20:06:44.050Z,7.98
2023-03-26T20:09:14.183Z,7.92
2023-03-26T20:11:43.445Z,7.85
2023-03-26T20:14:26.437Z,7.79
2023-03-26T20:16:55.605Z,7.74
2023-03-26T20:19:28.383Z,7.69
2023-03-26T20:22:02.303Z,7.61
2023-03-26T20:24:30.723Z,7.55
2023-03-26T20:27:02.426Z,7.55
2023-03-26T20:29:33.036Z,7.59
2023-03-26T20:32:01.448Z,7.61
2023-03-26T20:34:30.390Z,7.57
2023-03-26T20:37:01.134Z,7.53
2023-03-26T20:39:31.144Z,7.50
2023-03-26T20:42:00.946Z,7.44
2023-03-26T20:44:30.837Z,7.39
2023-03-26T20:47:00.975Z,7.33
2023-03-26T20:49:32.555Z,7.26
2023-03-26T20:52:00.893Z,7.17
2023-03-26T20:54:31.694Z,7.09
2023-03-26T20:57:02.557Z,7.03
2023-03-26T20:59:33.326Z,6.99
2023-03-26T21:02:02.098Z,6.98
2023-03-26T21:04:30.599Z,6.97
2023-03-26T21:07:07.118Z,7.01
2023-03-26T21:09:41.575Z,7.10
2023-03-26T21:12:46.057Z,7.15
2023-03-26T21:15:23.910Z,7.14
2023-03-26T21:17:53.165Z,7.10
2023-03-26T21:20:22.178Z,7.07
2023-03-26T21:23:15.746Z,7.02
2023-03-26T21:25:44.280Z,6.99
2023-03-26T21:28:41.358Z,6.96
2023-03-26T21:31:22.184Z,6.91
2023-03-26T21:33:50.735Z,6.89
2023-03-26T21:36:19.926Z,6.86
2023-03-26T21:38:50.614Z,6.83
2023-03-26T21:41:45.099Z,6.79
2023-03-26T21:44:14.557Z,6.82
2023-03-26T21:46:43.762Z,6.89
2023-03-26T21:49:13.809Z,6.94
2023-03-26T21:51:43.374Z,6.94
2023-03-26T21:54:25.982Z,6.94
2023-03-26T21:57:23.623Z,6.94
2023-03-26T22:00:19.946Z,6.87
2023-03-26T22:03:09.104Z,6.77
2023-03-26T22:05:55.303Z,6.68
2023-03-26T22:08:32.354Z,6.58
2023-03-26T22:11:01.530Z,6.49
2023-03-26T22:13:31.139Z,6.44
2023-03-26T22:16:02.664Z,6.48
2023-03-26T22:18:31.069Z,6.55
2023-03-26T22:21:00.049Z,6.59
2023-03-26T22:23:34.420Z,6.58
2023-03-26T22:26:06.617Z,6.56
2023-03-26T22:28:36.641Z,6.55
2023-03-26T22:31:09.188Z,6.51
2023-03-26T22:33:40.146Z,6.42
2023-03-26T22:36:22.002Z,6.28
2023-03-26T22:38:53.987Z,6.09
2023-03-26T22:41:24.649Z,6.03
2023-03-26T22:43:56.833Z,6.02
2023-03-26T22:46:26.412Z,6.09
2023-03-26T22:48:55.970Z,6.19
2023-03-26T22:51:28.289Z,6.24
2023-03-26T22:53:57.475Z,6.24
2023-03-26T22:56:27.954Z,6.25
2023-03-26T22:58:56.288Z,6.24
2023-03-26T23:01:25.041Z,6.24
2023-03-26T23:03:54.239Z,6.23
2023-03-26T23:06:24.016Z,6.19
2023-03-26T23:08:52.400Z,6.16
2023-03-26T23:11:22.007Z,6.13
2023-03-26T23:13:51.367Z,6.14
2023-03-26T23:16:21.516Z,6.19
2023-03-26T23:18:50.439Z,6.21
2023-03-26T23:21:27.294Z,6.19
2023-03-26T23:23:55.485Z,6.16
2023-03-26T23:26:24.205Z,6.13
2023-03-26T23:28:52.729Z,6.09
2023-03-26T23:31:20.860Z,6.04
2023-03-26T23:33:50.510Z,5.99
2023-03-26T23:36:20.952Z,5.94
2023-03-26T23:38:49.806Z,5.86
2023-03-26T23:41:21.714Z,5.77
2023-03-26T23:43:55.805Z,5.77
2023-03-26T23:46:31.033Z,5.84
2023-03-26T23:49:02.492Z,5.89
2023-03-26T23:51:33.934Z,5.89
2023-03-26T23:54:02.949Z,5.87
2023-03-26T23:56:33.608Z,5.82
2023-03-26T23:59:06.996Z,5.74
